createdAt,value
2022-10-18T00:01:54.403Z,11.84
2022-10-18T00:03:59.909Z,11.87
2022-10-18T00:06:05.157Z,12.16
2022-10-18T00:08:10.210Z,12.46
2022-10-18T00:10:15.335Z,12.67
2022-10-18T00:12:20.567Z,12.63
2022-10-18T00:14:25.835Z,12.67
2022-10-18T00:16:30.844Z,12.92
2022-10-18T00:18:36.074Z,12.9
2022-10-18T00:20:41.199Z,12.99
2022-10-18T00:22:46.429Z,13.03
2022-10-18T00:24:51.709Z,12.94
2022-10-18T00:26:56.977Z,12.79
2022-10-18T00:29:02.540Z,12.71
2022-10-18T00:31:08.025Z,12.57
2022-10-18T00:33:13.129Z,12.73
2022-10-18T00:35:18.572Z,12.86
2022-10-18T00:37:23.670Z,12.79
2022-10-18T00:39:29.054Z,12.86
2022-10-18T00:41:34.171Z,12.81
2022-10-18T00:43:39.509Z,12.82
2022-10-18T00:45:44.817Z,12.77
2022-10-18T00:47:50.210Z,12.96
2022-10-18T00:49:55.473Z,13.01
2022-10-18T00:52:00.830Z,12.92
2022-10-18T00:54:06.029Z,13.11
2022-10-18T00:56:11.315Z,13.55
2022-10-18T00:58:16.820Z,13.59
2022-10-18T01:00:22.113Z,13.56
2022-10-18T01:02:27.372Z,13.42
2022-10-18T01:04:34.140Z,13.48
2022-10-18T01:06:39.588Z,13.6
2022-10-18T01:08:45.151Z,13.6
2022-10-18T01:10:50.446Z,13.83
2022-10-18T01:12:55.814Z,13.79
2022-10-18T01:15:01.161Z,13.68
2022-10-18T01:17:06.260Z,13.52
2022-10-18T01:19:11.312Z,13.43
2022-10-18T01:21:16.507Z,13.43
2022-10-18T01:23:21.873Z,13.4
2022-10-18T01:25:28.240Z,13.63
2022-10-18T01:27:33.794Z,13.64
2022-10-18T01:29:39.305Z,13.62
2022-10-18T01:31:44.703Z,13.78
2022-10-18T01:33:49.992Z,13.81
2022-10-18T01:35:55.681Z,13.65
2022-10-18T01:38:00.957Z,13.52
2022-10-18T01:40:06.194Z,13.46
2022-10-18T01:42:11.402Z,13.5
2022-10-18T01:44:16.544Z,13.56
2022-10-18T01:46:21.771Z,13.56
2022-10-18T01:48:27.058Z,13.67
2022-10-18T01:50:32.535Z,13.68
2022-10-18T01:52:38.140Z,13.54
2022-10-18T01:54:43.579Z,13.49
2022-10-18T01:56:49.157Z,13.65
2022-10-18T01:58:54.555Z,13.53
2022-10-18T02:00:59.971Z,13.55
2022-10-18T02:03:05.474Z,13.49
2022-10-18T02:05:10.848Z,13.59
2022-10-18T02:07:19.063Z,13.48
2022-10-18T02:09:24.299Z,13.6
2022-10-18T02:11:29.416Z,13.6
2022-10-18T02:13:37.607Z,13.45
2022-10-18T02:15:42.762Z,13.46
2022-10-18T02:17:47.949Z,13.42
2022-10-18T02:19:53.420Z,13.4
2022-10-18T02:21:58.892Z,13.32
2022-10-18T02:24:04.357Z,13.22
2022-10-18T02:26:09.763Z,13.04
2022-10-18T02:28:15.331Z,13.05
2022-10-18T02:30:20.927Z,13.22
2022-10-18T02:32:26.319Z,13.24
2022-10-18T02:34:32.795Z,13.22
2022-10-18T02:36:38.063Z,13.11
2022-10-18T02:38:43.439Z,13.05
2022-10-18T02:40:48.880Z,13.1
2022-10-18T02:42:54.376Z,13.07
2022-10-18T02:44:59.749Z,13.08
2022-10-18T02:47:05.001Z,12.99
2022-10-18T02:49:10.458Z,12.97
2022-10-18T02:51:15.485Z,13.06
2022-10-18T02:53:20.756Z,12.98
2022-10-18T02:55:26.140Z,12.89
2022-10-18T02:57:31.877Z,12.93
2022-10-18T02:59:38.158Z,12.82
2022-10-18T03:01:43.523Z,12.93
2022-10-18T03:03:49.190Z,12.88
2022-10-18T03:05:54.589Z,12.86
2022-10-18T03:08:00.058Z,12.87
2022-10-18T03:10:05.442Z,12.89
2022-10-18T03:12:10.685Z,12.92
2022-10-18T03:14:15.876Z,12.95
2022-10-18T03:16:21.274Z,12.93
2022-10-18T03:18:26.625Z,12.91
2022-10-18T03:20:31.660Z,12.79
2022-10-18T03:22:36.967Z,12.87
2022-10-18T03:24:42.371Z,12.91
2022-10-18T03:26:47.567Z,12.89
2022-10-18T03:28:52.867Z,12.89
2022-10-18T03:30:58.348Z,12.85
2022-10-18T03:33:03.862Z,12.73
2022-10-18T03:35:09.239Z,12.67
2022-10-18T03:37:14.593Z,12.59
2022-10-18T03:39:19.927Z,12.5
2022-10-18T03:41:25.290Z,12.51
2022-10-18T03:43:30.413Z,12.48
2022-10-18T03:45:35.764Z,12.52
2022-10-18T03:47:41.042Z,12.56
2022-10-18T03:49:46.465Z,12.52
2022-10-18T03:51:59.273Z,12.37
2022-10-18T03:54:04.735Z,12.29
2022-10-18T03:56:10.328Z,12.19
2022-10-18T03:58:15.551Z,12.19
2022-10-18T04:00:21.203Z,12.35
2022-10-18T04:02:26.481Z,12.37
2022-10-18T04:04:32.722Z,12.36
2022-10-18T04:06:38.159Z,12.28
2022-10-18T04:08:43.552Z,12.19
2022-10-18T04:10:49.073Z,12.19
2022-10-18T04:12:54.443Z,12.11
2022-10-18T04:14:59.768Z,12.01
2022-10-18T04:17:05.093Z,11.85
2022-10-18T04:19:10.567Z,11.89
2022-10-18T04:21:16.047Z,11.97
2022-10-18T04:23:21.416Z,11.99
2022-10-18T04:25:26.749Z,11.9
2022-10-18T04:27:32.523Z,11.79
2022-10-18T04:29:39.145Z,11.79
2022-10-18T04:31:44.582Z,11.71
2022-10-18T04:33:50.115Z,11.65
2022-10-18T04:35:55.494Z,11.57
2022-10-18T04:38:00.817Z,11.48
2022-10-18T04:40:06.167Z,11.36
2022-10-18T04:42:11.594Z,11.36
2022-10-18T04:44:17.478Z,11.29
2022-10-18T04:46:23.359Z,11.21
2022-10-18T04:48:28.911Z,11.11
2022-10-18T04:50:35.045Z,11.05
2022-10-18T04:52:40.388Z,10.97
2022-10-18T04:54:46.174Z,10.86
2022-10-18T04:56:51.448Z,10.77
2022-10-18T04:58:57.263Z,10.66
2022-10-18T05:01:02.473Z,10.55
2022-10-18T05:03:07.907Z,10.48
2022-10-18T05:05:13.977Z,10.42
2022-10-18T05:07:20.354Z,10.39
2022-10-18T05:09:26.396Z,10.35
2022-10-18T05:11:31.855Z,10.28
2022-10-18T05:13:37.655Z,10.27
2022-10-18T05:15:43.683Z,10.23
2022-10-18T05:17:49.690Z,10.22
2022-10-18T05:19:55.855Z,10.22
2022-10-18T05:22:01.374Z,10.25
2022-10-18T05:24:07.445Z,10.26
2022-10-18T05:26:13.727Z,10.36
2022-10-18T05:30:55.501Z,10.47
2022-10-18T05:33:00.837Z,10.59
2022-10-18T05:35:06.314Z,10.69
2022-10-18T05:37:11.586Z,10.78
2022-10-18T05:39:17.372Z,10.84
2022-10-18T05:41:25.750Z,10.93
2022-10-18T05:43:31.202Z,11.02
2022-10-18T05:45:36.475Z,11.25
2022-10-18T05:47:44.359Z,11.34
2022-10-18T05:49:50.479Z,11.42
2022-10-18T05:51:56.417Z,11.51
2022-10-18T05:54:01.652Z,11.59
2022-10-18T05:56:07.121Z,11.67
2022-10-18T05:58:12.454Z,11.74
2022-10-18T06:00:28.393Z,11.86
2022-10-18T06:02:39.101Z,11.94
2022-10-18T06:04:44.645Z,11.98
2022-10-18T06:06:50.447Z,12.05
2022-10-18T06:08:56.606Z,12.1
2022-10-18T06:11:02.528Z,12.14
2022-10-18T06:13:07.958Z,12.2
2022-10-18T06:15:13.508Z,12.27
2022-10-18T06:17:20.079Z,12.4
2022-10-18T06:19:27.049Z,12.66
2022-10-18T06:21:32.347Z,12.8
2022-10-18T06:23:38.283Z,12.88
2022-10-18T06:25:44.243Z,12.97
2022-10-18T06:27:49.460Z,13.1
2022-10-18T06:29:54.821Z,13.22
2022-10-18T06:32:00.396Z,13.41
2022-10-18T06:34:05.706Z,13.52
2022-10-18T06:36:11.000Z,13.6
2022-10-18T06:38:16.183Z,13.7
2022-10-18T06:40:21.643Z,13.78
2022-10-18T06:42:27.718Z,13.88
2022-10-18T06:44:34.157Z,14.01
2022-10-18T06:46:39.542Z,14.16
2022-10-18T06:48:44.902Z,14.26
2022-10-18T06:50:50.320Z,14.36
2022-10-18T06:52:56.085Z,14.42
2022-10-18T06:55:01.747Z,14.48
2022-10-18T06:57:13.283Z,14.6
2022-10-18T06:59:18.576Z,14.74
2022-10-18T07:01:26.359Z,14.86
2022-10-18T07:03:32.707Z,14.96
2022-10-18T07:05:38.149Z,15.08
2022-10-18T07:07:43.701Z,15.2
2022-10-18T07:09:49.225Z,15.36
2022-10-18T07:11:54.858Z,15.39
2022-10-18T07:14:00.369Z,15.52
2022-10-18T07:16:05.840Z,15.67
2022-10-18T07:18:17.679Z,15.82
2022-10-18T07:20:25.349Z,15.88
2022-10-18T07:22:33.298Z,15.95
2022-10-18T07:24:39.984Z,16.07
2022-10-18T07:26:46.224Z,16.18
2022-10-18T07:28:51.785Z,16.14
2022-10-18T07:31:01.243Z,16.08
2022-10-18T07:33:10.890Z,16.19
2022-10-18T07:35:16.959Z,16.24
2022-10-18T07:37:24.353Z,16.28
2022-10-18T07:39:35.509Z,16.16
2022-10-18T07:41:41.023Z,16.28
2022-10-18T07:43:46.891Z,16.25
2022-10-18T07:45:52.888Z,16.29
2022-10-18T07:47:58.174Z,16.35
2022-10-18T07:50:03.559Z,16.48
2022-10-18T07:52:08.985Z,16.66
2022-10-18T07:54:14.652Z,16.68
2022-10-18T07:56:21.623Z,16.69
2022-10-18T07:58:27.921Z,16.72
2022-10-18T08:00:33.761Z,16.69
2022-10-18T08:02:39.949Z,16.67
2022-10-18T08:04:46.375Z,16.68
2022-10-18T08:06:52.445Z,16.8
2022-10-18T08:08:58.829Z,16.86
2022-10-18T08:11:04.881Z,16.81
2022-10-18T08:13:10.835Z,16.79
2022-10-18T08:15:16.890Z,16.87
2022-10-18T08:17:22.094Z,16.95
2022-10-18T08:19:27.256Z,17.05
2022-10-18T08:21:32.838Z,17.18
2022-10-18T08:23:38.516Z,17.1
2022-10-18T08:25:43.876Z,17.16
2022-10-18T08:27:49.584Z,17.34
2022-10-18T08:29:55.351Z,17.52
2022-10-18T08:32:01.545Z,17.52
2022-10-18T08:34:07.317Z,17.48
2022-10-18T08:36:17.021Z,17.6
2022-10-18T08:38:23.272Z,17.72
2022-10-18T08:40:28.937Z,17.77
2022-10-18T08:42:35.462Z,17.92
2022-10-18T08:44:41.345Z,18.26
2022-10-18T08:46:47.359Z,18.45
2022-10-18T08:48:54.258Z,18.58
2022-10-18T08:51:00.357Z,18.73
2022-10-18T08:53:06.503Z,19.26
2022-10-18T08:55:12.201Z,20.04
2022-10-18T08:57:18.137Z,20.64
2022-10-18T08:59:25.377Z,20.99
2022-10-18T09:01:31.357Z,21.37
2022-10-18T09:03:37.115Z,21.35
2022-10-18T09:05:43.813Z,22.14
2022-10-18T09:07:49.232Z,22.54
2022-10-18T09:09:56.004Z,21.6
2022-10-18T09:12:02.259Z,21.28
2022-10-18T09:14:08.424Z,21.34
2022-10-18T09:16:13.744Z,22.22
2022-10-18T09:18:19.357Z,22.61
2022-10-18T09:20:25.242Z,22.84
2022-10-18T09:22:30.701Z,22.78
2022-10-18T09:24:37.447Z,23.75
2022-10-18T09:26:43.169Z,23.41
2022-10-18T09:28:48.840Z,24.31
2022-10-18T09:30:55.961Z,24.18
2022-10-18T09:33:04.722Z,24.39
2022-10-18T09:35:10.403Z,24.27
2022-10-18T09:37:15.891Z,23.63
2022-10-18T09:39:22.437Z,24.1
2022-10-18T09:41:27.906Z,23.62
2022-10-18T09:43:33.666Z,23.63
2022-10-18T09:45:39.592Z,23.35
2022-10-18T09:47:45.109Z,22.13
2022-10-18T09:49:50.282Z,22.09
2022-10-18T09:51:55.702Z,21.98
2022-10-18T09:54:01.459Z,21.93
2022-10-18T09:56:07.622Z,21.66
2022-10-18T09:58:13.241Z,21.71
2022-10-18T10:00:18.574Z,22.66
2022-10-18T10:02:24.204Z,23.66
2022-10-18T10:04:29.883Z,25.03
2022-10-18T10:06:35.309Z,25.51
2022-10-18T10:08:40.994Z,25.11
2022-10-18T10:10:46.626Z,25.28
2022-10-18T10:12:52.253Z,24.71
2022-10-18T10:15:02.512Z,24.01
2022-10-18T10:17:07.856Z,24.8
2022-10-18T10:19:13.187Z,25.93
2022-10-18T10:21:18.686Z,25.82
2022-10-18T10:23:23.972Z,24.78
2022-10-18T10:25:31.222Z,24.82
2022-10-18T10:27:36.744Z,24.55
2022-10-18T10:29:44.668Z,22.57
2022-10-18T10:31:50.720Z,21.83
2022-10-18T10:33:56.198Z,22.41
2022-10-18T10:36:01.562Z,23.08
2022-10-18T10:38:06.891Z,23.59
2022-10-18T10:40:21.164Z,23.06
2022-10-18T10:42:32.679Z,22.82
2022-10-18T10:44:40.514Z,23.44
2022-10-18T10:46:46.448Z,24.11
2022-10-18T10:48:57.224Z,24.6
2022-10-18T10:51:45.177Z,24.64
2022-10-18T10:54:29.344Z,24.9
2022-10-18T10:56:34.745Z,23.85
2022-10-18T10:58:40.409Z,23.53
2022-10-18T11:00:46.333Z,23.38
2022-10-18T11:02:55.438Z,23.21
2022-10-18T11:05:33.827Z,22.71
2022-10-18T11:07:40.179Z,22.88
2022-10-18T11:09:46.109Z,23.05
2022-10-18T11:11:51.915Z,23.34
2022-10-18T11:14:13.467Z,23.57
2022-10-18T11:16:31.357Z,23.45
2022-10-18T11:18:36.814Z,23.86
2022-10-18T11:20:42.236Z,24.15
2022-10-18T11:22:47.838Z,22.96
2022-10-18T11:24:53.944Z,23.2
2022-10-18T11:26:59.513Z,24.02
2022-10-18T11:29:05.118Z,25.13
2022-10-18T11:31:11.047Z,25.32
2022-10-18T11:33:17.164Z,24.56
2022-10-18T11:35:28.324Z,23.93
2022-10-18T11:37:39.424Z,22.31
2022-10-18T11:39:47.860Z,21.74
2022-10-18T11:41:53.403Z,21.75
2022-10-18T11:44:03.477Z,21.77
2022-10-18T11:46:11.151Z,21.65
2022-10-18T11:48:17.448Z,21.66
2022-10-18T11:50:23.634Z,21.41
2022-10-18T11:52:30.024Z,21.46
2022-10-18T11:54:35.994Z,21.22
2022-10-18T11:56:41.865Z,21.14
2022-10-18T11:58:47.872Z,20.86
2022-10-18T12:00:53.674Z,20.57
2022-10-18T12:03:00.206Z,20.41
2022-10-18T12:07:42.083Z,20.01
2022-10-18T12:11:55.963Z,20.34
2022-10-18T12:14:02.027Z,20.3
2022-10-18T12:16:08.077Z,20.36
2022-10-18T12:18:13.573Z,20.36
2022-10-18T12:20:20.587Z,20.5
2022-10-18T12:22:26.858Z,20.41
2022-10-18T12:24:33.558Z,20.21
2022-10-18T12:26:39.351Z,20.25
2022-10-18T12:28:44.966Z,20.27
2022-10-18T12:30:50.676Z,20.28
2022-10-18T12:33:02.083Z,20.47
2022-10-18T12:35:32.216Z,20.45
2022-10-18T12:37:37.651Z,20.38
2022-10-18T12:40:05.326Z,20.34
2022-10-18T12:42:24.965Z,20.29
2022-10-18T12:44:30.749Z,20.28
2022-10-18T12:46:36.353Z,20.3
2022-10-18T12:48:41.916Z,20.3
2022-10-18T12:50:48.191Z,20.09
2022-10-18T12:52:54.435Z,20.1
2022-10-18T12:55:03.568Z,20.15
2022-10-18T12:57:08.967Z,20.22
2022-10-18T12:59:15.479Z,20.17
2022-10-18T13:01:21.617Z,20.34
2022-10-18T13:03:27.797Z,20.39
2022-10-18T13:05:41.136Z,20.48
2022-10-18T13:08:01.027Z,20.29
2022-10-18T13:10:06.637Z,20.21
2022-10-18T13:12:12.727Z,20.17
2022-10-18T13:14:19.202Z,20.1
2022-10-18T13:16:24.880Z,19.97
2022-10-18T13:18:30.817Z,20.02
2022-10-18T13:20:37.115Z,19.92
2022-10-18T13:22:42.991Z,19.89
2022-10-18T13:24:49.284Z,19.95
2022-10-18T13:27:03.976Z,20.04
2022-10-18T13:29:40.545Z,19.88
2022-10-18T13:31:46.659Z,19.82
2022-10-18T13:33:52.784Z,19.84
2022-10-18T13:35:58.874Z,19.85
2022-10-18T13:38:04.536Z,19.79
2022-10-18T13:40:10.690Z,19.76
2022-10-18T13:42:16.822Z,19.6
2022-10-18T13:44:22.753Z,19.59
2022-10-18T13:46:28.551Z,19.64
2022-10-18T13:48:34.647Z,19.69
2022-10-18T13:50:40.968Z,19.81
2022-10-18T13:52:49.988Z,19.82
2022-10-18T13:54:56.088Z,19.8
2022-10-18T13:57:02.163Z,19.8
2022-10-18T13:59:14.894Z,19.61
2022-10-18T14:01:21.519Z,19.66
2022-10-18T14:03:51.728Z,19.56
2022-10-18T14:06:03.599Z,19.44
2022-10-18T14:08:10.573Z,19.34
2022-10-18T14:10:17.618Z,19.32
2022-10-18T14:12:35.857Z,19.25
2022-10-18T14:14:42.079Z,19.17
2022-10-18T14:16:48.338Z,19.05
2022-10-18T14:18:54.784Z,19.09
2022-10-18T14:21:13.148Z,19.12
2022-10-18T14:23:33.184Z,19.13
2022-10-18T14:25:39.376Z,19.1
2022-10-18T14:27:45.402Z,19.07
2022-10-18T14:29:58.155Z,19.06
2022-10-18T14:32:04.231Z,19.02
2022-10-18T14:34:10.517Z,18.95
2022-10-18T14:36:16.551Z,18.92
2022-10-18T14:38:22.742Z,18.87
2022-10-18T14:40:29.046Z,18.84
2022-10-18T14:42:35.284Z,18.76
2022-10-18T14:44:41.578Z,18.59
2022-10-18T14:46:47.611Z,18.42
2022-10-18T14:48:54.345Z,18.35
2022-10-18T14:51:01.117Z,18.2
2022-10-18T14:53:07.288Z,18.08
2022-10-18T14:55:13.530Z,17.92
2022-10-18T14:57:19.667Z,17.81
2022-10-18T14:59:25.971Z,17.71
2022-10-18T15:01:32.498Z,17.59
2022-10-18T15:03:39.345Z,17.39
2022-10-18T15:05:45.546Z,17.24
2022-10-18T15:07:51.745Z,17.16
2022-10-18T15:09:58.223Z,17.09
2022-10-18T15:12:04.763Z,16.99
2022-10-18T15:14:10.800Z,16.91
2022-10-18T15:16:17.181Z,16.84
2022-10-18T15:18:23.576Z,16.83
2022-10-18T15:20:29.891Z,16.78
2022-10-18T15:22:36.324Z,16.73
2022-10-18T15:24:42.485Z,16.69
2022-10-18T15:26:48.873Z,16.64
2022-10-18T15:28:55.021Z,16.63
2022-10-18T15:31:09.108Z,16.59
2022-10-18T15:33:15.575Z,16.53
2022-10-18T15:35:25.839Z,16.64
2022-10-18T15:37:32.883Z,16.64
2022-10-18T15:39:40.106Z,16.6
2022-10-18T15:41:46.328Z,16.56
2022-10-18T15:43:52.506Z,16.5
2022-10-18T15:46:00.265Z,16.42
2022-10-18T15:48:11.453Z,16.35
2022-10-18T15:50:17.902Z,16.29
2022-10-18T15:52:24.086Z,16.26
2022-10-18T15:54:30.240Z,16.2
2022-10-18T15:56:36.580Z,16.21
2022-10-18T15:58:42.824Z,16.24
2022-10-18T16:00:48.901Z,16.23
2022-10-18T16:02:55.214Z,16.23
2022-10-18T16:05:01.631Z,16.22
2022-10-18T16:07:08.282Z,16.2
2022-10-18T16:09:14.518Z,16.17
2022-10-18T16:11:20.653Z,16.13
2022-10-18T16:13:27.346Z,16.07
2022-10-18T16:15:33.679Z,16.02
2022-10-18T16:17:40.019Z,15.96
2022-10-18T16:19:46.260Z,15.86
2022-10-18T16:21:52.767Z,15.77
2022-10-18T16:24:04.561Z,15.65
2022-10-18T16:26:11.159Z,15.64
2022-10-18T16:28:18.531Z,15.62
2022-10-18T16:30:25.569Z,15.57
2022-10-18T16:32:32.869Z,15.55
2022-10-18T16:34:40.014Z,15.53
2022-10-18T16:36:49.346Z,15.44
2022-10-18T16:38:56.094Z,15.4
2022-10-18T16:41:04.879Z,15.24
2022-10-18T16:43:11.761Z,15.02
2022-10-18T16:45:19.031Z,14.94
2022-10-18T16:47:26.667Z,14.83
2022-10-18T16:49:36.272Z,14.7
2022-10-18T16:51:44.965Z,14.64
2022-10-18T16:53:53.088Z,14.63
2022-10-18T16:56:00.493Z,14.6
2022-10-18T16:58:07.337Z,14.57
2022-10-18T17:00:15.015Z,14.5
2022-10-18T17:02:22.397Z,14.48
2022-10-18T17:04:30.200Z,14.43
2022-10-18T17:06:37.760Z,14.41
2022-10-18T17:08:46.833Z,14.39
2022-10-18T17:10:57.540Z,14.33
2022-10-18T17:13:07.312Z,14.29
2022-10-18T17:15:15.313Z,14.27
2022-10-18T17:17:23.647Z,14.29
2022-10-18T17:19:34.014Z,14.35
2022-10-18T17:21:41.547Z,14.32
2022-10-18T17:23:49.204Z,14.27
2022-10-18T17:26:05.240Z,14.28
2022-10-18T17:28:37.530Z,14.31
2022-10-18T17:30:46.780Z,14.28
2022-10-18T17:32:57.043Z,14.3
2022-10-18T17:35:07.929Z,14.27
2022-10-18T17:37:22.188Z,14.32
2022-10-18T17:39:33.684Z,14.32
2022-10-18T17:41:41.919Z,14.31
2022-10-18T17:43:51.931Z,14.29
2022-10-18T17:46:04.192Z,14.33
2022-10-18T17:48:13.926Z,14.32
2022-10-18T17:50:22.990Z,14.33
2022-10-18T17:52:32.110Z,14.3
2022-10-18T17:54:43.202Z,14.24
2022-10-18T17:56:54.512Z,14.18
2022-10-18T17:59:06.736Z,14.18
2022-10-18T18:01:15.796Z,14.17
2022-10-18T18:03:29.225Z,14.06
2022-10-18T18:05:46.807Z,14.07
2022-10-18T18:08:02.631Z,14.01
2022-10-18T18:10:16.677Z,13.97
2022-10-18T18:12:28.095Z,13.89
2022-10-18T18:14:44.508Z,13.86
2022-10-18T18:16:57.148Z,13.87
2022-10-18T18:19:10.115Z,13.83
2022-10-18T18:21:20.669Z,13.79
2022-10-18T18:23:35.206Z,13.74
2022-10-18T18:25:45.308Z,13.7
2022-10-18T18:27:55.682Z,13.64
2022-10-18T18:30:12.858Z,13.64
2022-10-18T18:32:23.979Z,13.62
2022-10-18T18:34:35.747Z,13.6
2022-10-18T18:36:45.440Z,13.59
2022-10-18T18:38:58.310Z,13.51
2022-10-18T18:41:09.550Z,13.5
2022-10-18T18:43:24.160Z,13.48
2022-10-18T18:45:35.228Z,13.43
2022-10-18T18:47:48.267Z,13.44
2022-10-18T18:50:02.228Z,13.42
2022-10-18T18:52:12.872Z,13.38
2022-10-18T18:54:25.912Z,13.36
2022-10-18T18:56:34.489Z,13.35
2022-10-18T18:58:47.186Z,13.35
2022-10-18T19:00:58.596Z,13.35
2022-10-18T19:03:09.131Z,13.35
2022-10-18T19:05:19.737Z,13.31
2022-10-18T19:07:33.465Z,13.29
2022-10-18T19:10:05.260Z,13.28
2022-10-18T19:12:20.652Z,13.27
2022-10-18T19:14:32.138Z,13.25
2022-10-18T19:16:43.395Z,13.25
2022-10-18T19:18:54.994Z,13.23
2022-10-18T19:21:11.199Z,13.25
2022-10-18T19:23:20.423Z,13.22
2022-10-18T19:25:34.712Z,13.21
2022-10-18T19:27:52.855Z,13.23
2022-10-18T19:30:08.004Z,13.23
2022-10-18T19:32:25.989Z,13.2
2022-10-18T19:34:37.465Z,13.19
2022-10-18T19:36:49.623Z,13.18
2022-10-18T19:39:05.231Z,13.15
2022-10-18T19:41:13.695Z,13.15
2022-10-18T19:43:27.288Z,13.16
2022-10-18T19:45:41.747Z,13.16
2022-10-18T19:47:54.688Z,13.17
2022-10-18T19:50:11.285Z,13.16
2022-10-18T19:52:28.351Z,13.12
2022-10-18T19:54:40.693Z,13.12
2022-10-18T19:56:50.222Z,13.13
2022-10-18T19:59:02.526Z,13.13
2022-10-18T20:01:14.372Z,13.1
2022-10-18T20:03:22.955Z,13.1
2022-10-18T20:05:30.437Z,13.12
2022-10-18T20:07:45.470Z,13.16
2022-10-18T20:09:53.304Z,13.16
2022-10-18T20:12:00.594Z,13.18
2022-10-18T20:14:07.233Z,13.15
2022-10-18T20:16:17.191Z,13.13
2022-10-18T20:18:31.511Z,13.13
2022-10-18T20:20:38.392Z,13.07
2022-10-18T20:22:55.980Z,13.04
2022-10-18T20:25:02.812Z,13.05
2022-10-18T20:27:09.221Z,13.04
2022-10-18T20:29:17.209Z,13.04
2022-10-18T20:31:26.105Z,13.05
2022-10-18T20:33:32.979Z,13.04
2022-10-18T20:35:39.734Z,13
2022-10-18T20:37:50.883Z,13.01
2022-10-18T20:39:57.923Z,13.02
2022-10-18T20:42:04.738Z,12.98
2022-10-18T20:44:11.467Z,12.97
2022-10-18T20:46:18.194Z,12.99
2022-10-18T20:48:24.608Z,12.99
2022-10-18T20:50:30.749Z,13
2022-10-18T20:52:37.579Z,12.95
2022-10-18T20:54:43.390Z,12.96
2022-10-18T20:56:49.279Z,12.95
2022-10-18T20:58:55.486Z,12.92
2022-10-18T21:01:02.113Z,12.88
2022-10-18T21:03:08.255Z,12.88
2022-10-18T21:05:18.847Z,12.88
2022-10-18T21:07:25.644Z,12.89
2022-10-18T21:09:32.915Z,12.91
2022-10-18T21:11:39.567Z,12.93
2022-10-18T21:13:44.981Z,12.92
2022-10-18T21:15:50.816Z,12.94
2022-10-18T21:17:56.532Z,12.91
2022-10-18T21:20:01.920Z,12.92
2022-10-18T21:22:07.246Z,12.91
2022-10-18T21:24:12.630Z,12.92
2022-10-18T21:26:18.245Z,12.95
2022-10-18T21:28:23.445Z,12.98
2022-10-18T21:30:29.536Z,12.98
2022-10-18T21:32:46.706Z,13.01
2022-10-18T21:34:59.083Z,13.04
2022-10-18T21:37:06.939Z,13.09
2022-10-18T21:39:14.805Z,13.08
2022-10-18T21:41:22.487Z,13.07
2022-10-18T21:43:30.059Z,13.07
2022-10-18T21:45:39.408Z,13.1
2022-10-18T21:47:47.872Z,13.12
2022-10-18T21:49:54.664Z,13.13
2022-10-18T21:52:05.053Z,13.1
2022-10-18T21:54:13.016Z,13.1
2022-10-18T21:56:20.296Z,13.15
2022-10-18T21:58:32.594Z,13.15
2022-10-18T22:00:39.936Z,13.15
2022-10-18T22:02:48.058Z,13.18
2022-10-18T22:04:55.062Z,13.17
2022-10-18T22:07:10.375Z,13.18
2022-10-18T22:09:17.520Z,13.2
2022-10-18T22:11:30.828Z,13.21
2022-10-18T22:13:39.267Z,13.25
2022-10-18T22:15:46.152Z,13.25
2022-10-18T22:17:55.508Z,13.24
2022-10-18T22:20:02.934Z,13.23
2022-10-18T22:22:09.742Z,13.25
2022-10-18T22:24:16.638Z,13.25
2022-10-18T22:26:23.725Z,13.23
2022-10-18T22:28:35.107Z,13.27
2022-10-18T22:30:42.456Z,13.27
2022-10-18T22:32:50.055Z,13.28
2022-10-18T22:34:56.626Z,13.3
2022-10-18T22:37:03.617Z,13.3
2022-10-18T22:39:12.001Z,13.32
2022-10-18T22:41:21.475Z,13.32
2022-10-18T22:43:28.712Z,13.32
2022-10-18T22:45:36.132Z,13.33
2022-10-18T22:47:43.814Z,13.33
2022-10-18T22:49:51.353Z,13.35
2022-10-18T22:51:57.935Z,13.35
2022-10-18T22:54:04.689Z,13.33
2022-10-18T22:56:12.465Z,13.31
2022-10-18T22:58:20.893Z,13.31
2022-10-18T23:00:28.323Z,13.3
2022-10-18T23:02:35.851Z,13.3
2022-10-18T23:04:42.794Z,13.31
2022-10-18T23:06:53.022Z,13.29
2022-10-18T23:09:00.115Z,13.28
2022-10-18T23:11:08.409Z,13.28
2022-10-18T23:13:15.276Z,13.26
2022-10-18T23:15:22.062Z,13.28
2022-10-18T23:17:29.124Z,13.25
2022-10-18T23:19:39.291Z,13.23
2022-10-18T23:21:47.995Z,13.21
2022-10-18T23:23:55.592Z,13.1
2022-10-18T23:26:03.394Z,13.07
2022-10-18T23:28:10.402Z,12.97
2022-10-18T23:30:17.336Z,12.91
2022-10-18T23:32:27.806Z,12.79
2022-10-18T23:34:36.413Z,12.7
2022-10-18T23:38:54.069Z,12.57
2022-10-18T23:41:01.156Z,12.64
2022-10-18T23:43:11.506Z,12.68
2022-10-18T23:45:18.835Z,12.68
2022-10-18T23:47:26.822Z,12.67
2022-10-18T23:49:36.152Z,12.63
2022-10-18T23:51:44.015Z,12.58
2022-10-18T23:53:53.758Z,12.51
2022-10-18T23:56:02.825Z,12.52
2022-10-18T23:58:09.541Z,12.5
